Susan Morrison — WDC7426 — position and weather

sailwx.info

Track history (hours):
 
Tides and Currents Weather Stations Pressure Air Temp Water Temp Dewpoint Dewpoint Depression Visibility Wind Speed Wind Dir Waves Ship Positions

Susan Morrison

Owner: Chet Morrison Contractors Inc., Houma, LA. More information available from US FCC via Universal Licensing System and Coast Guard Vessel Documentation Center.

Last reported at 2017-Nov-22 21:00 UTC. Time now 2017-Nov-24 05:54 UTC.
Position N 29°34' W 090°43'.

Length 15 m; draft 3.1 m.

Type: Towing. MMSI: 367071230.

Date/timePositionNaut miles runAvg speedWind from/ knotsBaromVisibWave heightAir tempDewpointWater temp
2017-Nov-22 21:00N 29°34' W 090°43'0 0.0
2017-Nov-22 20:29N 29°34' W 090°43'0 0.0
2017-Nov-22 19:58N 29°34' W 090°43'0 0.2
2017-Nov-22 19:28N 29°34' W 090°43'  
2017-Nov-20 00:28N 29°34' W 090°43'1 2.2
2017-Nov-20 00:00N 29°33' W 090°42'2 3.1
2017-Nov-19 23:28N 29°35' W 090°43'0 0.0
2017-Nov-19 22:58N 29°35' W 090°43'0 0.0
2017-Nov-19 22:29N 29°35' W 090°43'1 1.8
2017-Nov-19 22:00N 29°34' W 090°43'0 0.4
2017-Nov-19 21:29N 29°34' W 090°43'0 0.0
2017-Nov-19 20:59N 29°34' W 090°43'0 0.0
2017-Nov-19 20:29N 29°34' W 090°43'0 0.0
2017-Nov-19 19:59N 29°34' W 090°43'0 0.0
2017-Nov-19 19:29N 29°34' W 090°43'0 0.0
2017-Nov-19 18:59N 29°34' W 090°43'0 0.0
2017-Nov-19 18:29N 29°34' W 090°43'0 0.0
2017-Nov-19 17:59N 29°34' W 090°43'0 0.0
2017-Nov-19 17:29N 29°34' W 090°43'0 0.0
2017-Nov-19 16:59N 29°34' W 090°43'0 0.0
2017-Nov-19 16:29N 29°34' W 090°43'0 0.0
2017-Nov-19 15:59N 29°34' W 090°43'0 0.0
2017-Nov-19 15:29N 29°34' W 090°43'0 0.0
2017-Nov-19 14:59N 29°34' W 090°43'0 0.0
2017-Nov-19 14:29N 29°34' W 090°43'0 0.0
2017-Nov-19 13:59N 29°34' W 090°43'0 0.0
2017-Nov-19 13:29N 29°34' W 090°43'0 0.0
2017-Nov-19 12:59N 29°34' W 090°43'0 0.0
2017-Nov-19 12:29N 29°34' W 090°43'0 0.0
2017-Nov-19 11:59N 29°34' W 090°43'0 0.0
2017-Nov-19 11:29N 29°34' W 090°43'0 0.0
2017-Nov-19 10:59N 29°34' W 090°43'0 0.0
2017-Nov-19 10:29N 29°34' W 090°43'0 0.0
2017-Nov-19 09:59N 29°34' W 090°43'0 0.0
2017-Nov-19 09:29N 29°34' W 090°43'0 0.0
2017-Nov-19 08:59N 29°34' W 090°43'0 0.0
2017-Nov-19 08:29N 29°34' W 090°43'0 0.0
2017-Nov-19 07:59N 29°34' W 090°43'0 0.0
2017-Nov-19 07:29N 29°34' W 090°43'0 0.0
2017-Nov-19 06:59N 29°34' W 090°43'0 0.0
2017-Nov-19 06:29N 29°34' W 090°43'0 0.0
2017-Nov-19 05:59N 29°34' W 090°43'0 0.0
2017-Nov-19 05:29N 29°34' W 090°43'0 0.0
2017-Nov-19 04:59N 29°34' W 090°43'0 0.0
2017-Nov-19 04:29N 29°34' W 090°43'0 0.0
2017-Nov-19 03:59N 29°34' W 090°43'0 0.0
2017-Nov-19 03:29N 29°34' W 090°43'0 0.0
2017-Nov-19 02:59N 29°34' W 090°43'0 0.0
2017-Nov-19 02:29N 29°34' W 090°43'0 0.0
2017-Nov-19 01:59N 29°34' W 090°43'0 0.0
2017-Nov-19 01:26N 29°34' W 090°43'0 0.0
2017-Nov-19 00:59N 29°34' W 090°43'0 0.0
2017-Nov-19 00:29N 29°34' W 090°43'1 1.3
2017-Nov-19 00:00N 29°34' W 090°43'2 3.9
2017-Nov-18 23:30N 29°34' W 090°45'3 5.4
2017-Nov-18 23:00N 29°32' W 090°48'63 2.7
2017-Nov-17 23:19N 29°50' W 091°57'2 5.7
2017-Nov-17 22:56N 29°50' W 091°59'2 5.3
2017-Nov-17 22:30N 29°49' W 092°02'3 5.4
2017-Nov-17 22:00N 29°48' W 092°05'3 5.8
2017-Nov-17 21:30N 29°47' W 092°08'3 5.4
2017-Nov-17 21:00N 29°47' W 092°11'3 5.4
2017-Nov-17 20:30N 29°48' W 092°14'3 5.9
2017-Nov-17 19:58N 29°49' W 092°17'2 5.3
2017-Nov-17 19:30N 29°50' W 092°20'42 2.4
2017-Nov-17 02:03N 29°56' W 093°07'1 5.5
2017-Nov-17 01:51N 29°56' W 093°08'2 5.2
2017-Nov-17 01:30N 29°57' W 093°10'3 5.6
2017-Nov-17 01:00N 29°59' W 093°12'3 5.3
2017-Nov-17 00:30N 30°01' W 093°14'2 4.9
2017-Nov-17 00:00N 30°03' W 093°16'2 4.7
2017-Nov-16 23:30N 30°05' W 093°17'1 2.2
2017-Nov-16 23:00N 30°06' W 093°18'0 0.5
2017-Nov-16 22:28N 30°06' W 093°18'0 0.0
2017-Nov-16 21:58N 30°06' W 093°18'0 0.0
2017-Nov-16 21:28N 30°06' W 093°18'2 4.3
2017-Nov-16 21:00N 30°05' W 093°20'2 3.5
2017-Nov-16 20:28N 30°04' W 093°22'1 1.6
2017-Nov-16 19:59N 30°04' W 093°23'2 5.1
2017-Nov-16 19:30N 30°04' W 093°26'3 5.8
2017-Nov-16 19:00N 30°04' W 093°29'13 2.5
2017-Nov-16 14:04N 30°04' W 093°43'2 0.1
2017-Nov-15 20:03N 30°04' W 093°41'  
Track history (hours):
 
Tides and Currents Weather Stations Pressure Air Temp Water Temp Dewpoint Dewpoint Depression Visibility Wind Speed Wind Dir Waves Ship Positions

Susan Morrison

Owner: Chet Morrison Contractors Inc., Houma, LA. More information available from US FCC via Universal Licensing System and Coast Guard Vessel Documentation Center.

Last reported at 2017-Nov-22 21:00 UTC. Time now 2017-Nov-24 05:54 UTC.
Position N 29°34' W 090°43'.

Length 15 m; draft 3.1 m.

Type: Towing. MMSI: 367071230.

Date/timePositionNaut miles runAvg speedWind from/ knotsBaromVisibWave heightAir tempDewpointWater temp
2017-Nov-22 21:00N 29°34' W 090°43'0 0.0
2017-Nov-22 20:29N 29°34' W 090°43'0 0.0
2017-Nov-22 19:58N 29°34' W 090°43'0 0.2
2017-Nov-22 19:28N 29°34' W 090°43'  
2017-Nov-20 00:28N 29°34' W 090°43'1 2.2
2017-Nov-20 00:00N 29°33' W 090°42'2 3.1
2017-Nov-19 23:28N 29°35' W 090°43'0 0.0
2017-Nov-19 22:58N 29°35' W 090°43'0 0.0
2017-Nov-19 22:29N 29°35' W 090°43'1 1.8
2017-Nov-19 22:00N 29°34' W 090°43'0 0.4
2017-Nov-19 21:29N 29°34' W 090°43'0 0.0
2017-Nov-19 20:59N 29°34' W 090°43'0 0.0
2017-Nov-19 20:29N 29°34' W 090°43'0 0.0
2017-Nov-19 19:59N 29°34' W 090°43'0 0.0
2017-Nov-19 19:29N 29°34' W 090°43'0 0.0
2017-Nov-19 18:59N 29°34' W 090°43'0 0.0
2017-Nov-19 18:29N 29°34' W 090°43'0 0.0
2017-Nov-19 17:59N 29°34' W 090°43'0 0.0
2017-Nov-19 17:29N 29°34' W 090°43'0 0.0
2017-Nov-19 16:59N 29°34' W 090°43'0 0.0
2017-Nov-19 16:29N 29°34' W 090°43'0 0.0
2017-Nov-19 15:59N 29°34' W 090°43'0 0.0
2017-Nov-19 15:29N 29°34' W 090°43'0 0.0
2017-Nov-19 14:59N 29°34' W 090°43'0 0.0
2017-Nov-19 14:29N 29°34' W 090°43'0 0.0
2017-Nov-19 13:59N 29°34' W 090°43'0 0.0
2017-Nov-19 13:29N 29°34' W 090°43'0 0.0
2017-Nov-19 12:59N 29°34' W 090°43'0 0.0
2017-Nov-19 12:29N 29°34' W 090°43'0 0.0
2017-Nov-19 11:59N 29°34' W 090°43'0 0.0
2017-Nov-19 11:29N 29°34' W 090°43'0 0.0
2017-Nov-19 10:59N 29°34' W 090°43'0 0.0
2017-Nov-19 10:29N 29°34' W 090°43'0 0.0
2017-Nov-19 09:59N 29°34' W 090°43'0 0.0
2017-Nov-19 09:29N 29°34' W 090°43'0 0.0
2017-Nov-19 08:59N 29°34' W 090°43'0 0.0
2017-Nov-19 08:29N 29°34' W 090°43'0 0.0
2017-Nov-19 07:59N 29°34' W 090°43'0 0.0
2017-Nov-19 07:29N 29°34' W 090°43'0 0.0
2017-Nov-19 06:59N 29°34' W 090°43'0 0.0
2017-Nov-19 06:29N 29°34' W 090°43'0 0.0
2017-Nov-19 05:59N 29°34' W 090°43'0 0.0
2017-Nov-19 05:29N 29°34' W 090°43'0 0.0
2017-Nov-19 04:59N 29°34' W 090°43'0 0.0
2017-Nov-19 04:29N 29°34' W 090°43'0 0.0
2017-Nov-19 03:59N 29°34' W 090°43'0 0.0
2017-Nov-19 03:29N 29°34' W 090°43'0 0.0
2017-Nov-19 02:59N 29°34' W 090°43'0 0.0
2017-Nov-19 02:29N 29°34' W 090°43'0 0.0
2017-Nov-19 01:59N 29°34' W 090°43'0 0.0
2017-Nov-19 01:26N 29°34' W 090°43'0 0.0
2017-Nov-19 00:59N 29°34' W 090°43'0 0.0
2017-Nov-19 00:29N 29°34' W 090°43'1 1.3
2017-Nov-19 00:00N 29°34' W 090°43'2 3.9
2017-Nov-18 23:30N 29°34' W 090°45'3 5.4
2017-Nov-18 23:00N 29°32' W 090°48'63 2.7
2017-Nov-17 23:19N 29°50' W 091°57'2 5.7
2017-Nov-17 22:56N 29°50' W 091°59'2 5.3
2017-Nov-17 22:30N 29°49' W 092°02'3 5.4
2017-Nov-17 22:00N 29°48' W 092°05'3 5.8
2017-Nov-17 21:30N 29°47' W 092°08'3 5.4
2017-Nov-17 21:00N 29°47' W 092°11'3 5.4
2017-Nov-17 20:30N 29°48' W 092°14'3 5.9
2017-Nov-17 19:58N 29°49' W 092°17'2 5.3
2017-Nov-17 19:30N 29°50' W 092°20'42 2.4
2017-Nov-17 02:03N 29°56' W 093°07'1 5.5
2017-Nov-17 01:51N 29°56' W 093°08'2 5.2
2017-Nov-17 01:30N 29°57' W 093°10'3 5.6
2017-Nov-17 01:00N 29°59' W 093°12'3 5.3
2017-Nov-17 00:30N 30°01' W 093°14'2 4.9
2017-Nov-17 00:00N 30°03' W 093°16'2 4.7
2017-Nov-16 23:30N 30°05' W 093°17'1 2.2
2017-Nov-16 23:00N 30°06' W 093°18'0 0.5
2017-Nov-16 22:28N 30°06' W 093°18'0 0.0
2017-Nov-16 21:58N 30°06' W 093°18'0 0.0
2017-Nov-16 21:28N 30°06' W 093°18'2 4.3
2017-Nov-16 21:00N 30°05' W 093°20'2 3.5
2017-Nov-16 20:28N 30°04' W 093°22'1 1.6
2017-Nov-16 19:59N 30°04' W 093°23'2 5.1
2017-Nov-16 19:30N 30°04' W 093°26'3 5.8
2017-Nov-16 19:00N 30°04' W 093°29'13 2.5
2017-Nov-16 14:04N 30°04' W 093°43'2 0.1
2017-Nov-15 20:03N 30°04' W 093°41'  

Dump ship's entire track history